Rowena, TX (76875)

8:15 PM CDT on September 26, 2016 (GMT -0500)
May Hill | | Change Station

Elev 1762 ft 31.55 °N, 100.22 °W | Updated 45 seconds ago

Overcast
Overcast
64.2 °F
Feels Like 64.2 °F
N
2.7
Wind Variable Wind from North

Today
High -- | Low -- °F
--% Chance of Precip.
Yesterday
High -- | Low -- °F
Precip. -- in
Pressure 30.18 in
Visibility 10.0 miles
Clouds Overcast 5500 ft
Dew Point 61 °F
Humidity 90%
Rainfall 0.10 in
Snow Depth Not available.
7:30 AM 7:30 PM
Waning Crescent, 15% visible
METAR KCOM 270055Z AUTO 35004KT 10SM OVC055 19/14 A3018 RMK AO2 T01920136
Pressure 30.18 in
Visibility 10.0 miles
Clouds Overcast 5500 ft
Dew Point 61 °F
Humidity 90%
Rainfall 0.10 in
Snow Depth Not available.
7:30 AM 7:30 PM
Waning Crescent, 15% visible
METAR KCOM 270055Z AUTO 35004KT 10SM OVC055 19/14 A3018 RMK AO2 T01920136

10-Day Weather Forecast

Almanac

Astronomy

Sep. 26, 2016 Rise Set
Actual Time
Civil Twilight
Nautical Twilight
Astronomical Twilight
Moon
Length of Visible Light
Length of Day
Tomorrow will be .
, % of the Moon is Illuminated

Today's Extremes

State Highs State Lows

Community

WunderPhotos

Upload Photos

1,942,001 photos uploaded!

WunderBlog® & News

Nearby

Air Quality

  Air Quality AQ Index Pollutant
Not available.

Snow Depth

Station Depth Elevation

Earthquake Activity

City Distance Mag. Time & Date
Minimum magnitude displayed is 2.5.

Coastal Water Temperatures

Place Temperature

Stations

Nearby Weather Stations

Station Location Temp. Windchill Dew Point Humidity Wind Precip. Elev Updated Type
                   

Watches & Warnings

There are currently no watches in effect.